Arnold, PA

9:40 AM EDT on July 06, 2015 (GMT -0400)
40 Acres | | Change Station
CLOSE
Current Station
Personal Weather Station
Location: New Kensington, PA
Elevation: 1003 ft
Nearby Weather Stations

Elev 1003 ft 40.58 °N, 79.74 °W | Updated 4 seconds ago

Overcast
Overcast
73.8 °F
Feels Like 72 °F
N
1.0
Wind Variable Wind from East
Gusts 1.0 mph

Today
High -- | Low -- °F
--% Chance of Precip.
Yesterday
High -- | Low -- °F
Precip. -- in
5:54 AM 8:52 PM
Waning Gibbous, 75% visible
Pressure 30.09 in
Visibility 7.0 miles
Clouds Scattered Clouds 4300 ft
Mostly Cloudy 8000 ft
Overcast 9000 ft
Heat Index 72 °F
Dew Point 70 °F
Humidity 88%
Rainfall 0.00 in
Snow Depth Not available.
UV 1 out of 12
Pollen .50 out of 12
Air Quality Not available.
Flu Activity Not available.
METAR KAGC 061253Z AUTO 00000KT 7SM SCT043 BKN080 OVC090 22/19 A3010 RMK AO2 SLP188 T02220189 TSNO

More Conditions Fewer Conditions

Pressure 30.09 in
Visibility 7.0 miles
Clouds Scattered Clouds 4300 ft
Mostly Cloudy 8000 ft
Overcast 9000 ft
Heat Index 72 °F
Dew Point 70 °F
Humidity 88%
Rainfall 0.00 in
Snow Depth Not available.
UV 1 out of 12
Pollen .50 out of 12
Air Quality Not available.
Flu Activity Not available.
METAR KAGC 061253Z AUTO 00000KT 7SM SCT043 BKN080 OVC090 22/19 A3010 RMK AO2 SLP188 T02220189 TSNO

More Conditions Fewer Conditions

10-Day Weather Forecast

×

Almanac

Astronomy

Jul. 06, 2015 Rise Set
Actual Time
Civil Twilight
Nautical Twilight
Astronomical Twilight
Moon
Length of Visible Light
Length of Day
Tomorrow will be .
, % of the Moon is Illuminated

Today's Extremes

State Highs State Lows

Community

WunderPhotos

Upload Photos

1,835,558 photos uploaded!

WunderBlogs® & News

Nearby

Air Quality

  Air Quality AQ Index Pollutant
Not available.

Snow Depth

Station Depth Elevation

Earthquake Activity

City Distance Mag. Time & Date
Minimum magnitude displayed is 2.5.

Coastal Water Temperatures

Place Temperature

Stations

Nearby Weather Stations

Station Location Temp. Windchill Dew Point Humidity Wind Precip. Elev Updated Type